Data for 03/02/2005

Time Sea-Level Adjusted Pressure Absolute Pressure Temperature Relative Humidity Dew Point   
(mb) (inHg) (mb) (inHg) (C) (F) (%) (C) (F)
00:05 1016 30 845 24.95 0.4 32.8 57 -7.2 19.1
00:10 1016 30 845 24.95 0.7 33.3 56 -7 19.4
00:15 1016 30 845 24.95 0.6 33.1 58 -6.8 19.8
00:20 1016 30 845 24.95 0 32.1 61 -6.7 20
00:25 1016 30 845 24.95 -0.1 31.9 62 -6.5 20.2
00:30 1016 30 845 24.95 -0.3 31.4 62 -6.8 19.8
00:35 1016 30 845 24.95 -0.5 31.1 62 -6.8 19.8
00:40 1015 29.97 845 24.95 -0.6 31 65 -6.4 20.4
00:45 1015 29.97 845 24.95 -0.8 30.6 65 -6.6 20.2
00:50 1015 29.97 845 24.95 -0.7 30.7 63 -6.9 19.5
00:55 1015 29.97 845 24.95 -0.3 31.5 60 -7 19.3
01:00 1015 29.97 845 24.95 -0.1 31.8 60 -6.9 19.5
01:05 1015 29.97 845 24.95 -0.3 31.5 62 -6.7 19.9
01:10 1015 29.97 845 24.95 -0.6 30.9 64 -6.6 20
01:15 1015 29.97 845 24.95 -1.1 30.1 67 -6.5 20.4
01:20 1015 29.97 845 24.95 -1.2 29.9 66 -6.7 19.9
01:25 1015 29.97 845 24.95 -1 30.2 62 -7.4 18.7
01:30 1015 29.97 845 24.95 -0.1 31.8 59 -7.2 19
01:35 1015 29.97 845 24.95 -0.1 31.8 59 -7.2 19.1
01:40 1015 29.97 845 24.95 0.1 32.1 58 -7.2 19
01:45 1015 29.97 845 24.95 -0.1 31.9 60 -6.8 19.7
01:50 1015 29.97 845 24.95 -0.6 30.9 63 -6.7 19.9
01:55 1015 29.97 845 24.95 -1 30.2 65 -6.8 19.8
02:00 1015 29.97 845 24.95 -1.1 30 66 -6.8 19.8
02:05 1015 29.97 845 24.95 -1.2 29.9 66 -6.8 19.8
02:10 1015 29.97 845 24.95 -1.3 29.7 66 -6.9 19.6
02:15 1015 29.97 845 24.95 -1.3 29.6 66 -7 19.4
02:20 1015 29.97 845 24.95 -1.3 29.6 65 -7 19.4
02:25 1015 29.97 845 24.95 -1.2 29.8 64 -7.2 19
02:30 1015 29.97 845 24.95 -0.9 30.3 63 -7.2 19.1
02:35 1015 29.97 845 24.95 -0.9 30.5 63 -7.1 19.2
02:40 1015 29.97 845 24.95 -1 30.2 63 -7.2 19
02:45 1015 29.97 845 24.95 -0.8 30.5 61 -7.4 18.6
02:50 1015 29.97 845 24.95 -0.7 30.7 63 -7 19.4
02:55 1015 29.97 845 24.95 -1.1 30.1 64 -7 19.4
03:00 1015 29.97 845 24.95 -1 30.2 63 -7.2 19
03:05 1015 29.97 845 24.95 -1.1 29.9 64 -7.1 19.2
03:10 1015 29.97 845 24.95 -0.8 30.6 58 -8.1 17.4
03:15 1015 29.97 845 24.95 0.1 32.2 59 -7 19.3
03:20 1015 29.97 845 24.95 -0.2 31.6 58 -7.4 18.6
03:25 1015 29.97 845 24.95 -0.3 31.4 58 -7.6 18.2
03:30 1015 29.97 845 24.95 -0.4 31.3 60 -7.2 19
03:35 1015 29.97 845 24.95 -1 30.2 60 -7.9 17.8
03:40 1015 29.97 845 24.95 -0.4 31.3 57 -7.9 17.7
03:45 1016 30 845 24.95 0.2 32.4 56 -7.7 18.2
03:50 1016 30 845 24.95 0.1 32.1 57 -7.5 18.4
03:55 1016 30 845 24.95 -0.3 31.5 59 -7.5 18.6
04:00 1016 30 845 24.95 -0.5 31.1 59 -7.5 18.5
04:05 1016 30 845 24.95 -0.7 30.7 61 -7.3 18.8
04:10 1016 30 845 24.95 -0.8 30.5 61 -7.5 18.6
04:15 1016 30 845 24.95 -1 30.2 62 -7.4 18.7
04:20 1016 30 845 24.95 -1.1 30.1 62 -7.5 18.5
04:25 1016 30 845 24.95 -1.1 30 62 -7.4 18.6
04:30 1016 30 845 24.95 -1.4 29.5 63 -7.5 18.6
04:35 1016 30 845 24.95 -1.3 29.7 62 -7.5 18.5
04:40 1016 30 845 24.95 -1.3 29.6 63 -7.5 18.5
04:45 1016 30 845 24.95 -1.3 29.6 63 -7.6 18.4
04:50 1016 30 845 24.95 -1.1 29.9 62 -7.5 18.5
04:55 1016 30 845 24.95 -1.2 29.9 62 -7.6 18.4
05:00 1016 30 845 24.95 -1.2 29.8 63 -7.5 18.6
05:05 1016 30 845 24.95 -1.3 29.6 63 -7.5 18.6
05:10 1016 30 845 24.95 -1.6 29.2 65 -7.3 18.8
05:15 1016 30 845 24.95 -1.8 28.7 66 -7.4 18.7
05:20 1016 30 845 24.95 -1.8 28.7 65 -7.5 18.5
05:25 1016 30 845 24.95 -1.9 28.6 65 -7.6 18.4
05:30 1016 30 845 24.95 -1.8 28.7 66 -7.4 18.6
05:35 1016 30 845 24.95 -1.9 28.6 66 -7.4 18.6
05:40 1016 30 845 24.95 -1.7 28.9 64 -7.7 18.2
05:45 1016 30 845 24.95 -1.3 29.7 62 -7.8 18
05:50 1016 30 845 24.95 -1 30.2 60 -7.8 17.9
05:55 1016 30 845 24.95 -0.8 30.6 59 -7.8 17.9
06:00 1016 30 845 24.95 -0.7 30.7 59 -7.7 18.2
06:05 1016 30 845 24.95 -0.8 30.6 57 -8.3 17
06:10 1016 30 845 24.95 -0.7 30.7 58 -8.1 17.4
06:15 1016 30 845 24.95 -1 30.3 59 -7.9 17.7
06:20 1016 30 845 24.95 -1.8 28.7 65 -7.7 18.2
06:25 1016 30 845 24.95 -2.4 27.7 63 -8.5 16.7
06:30 1016 30 845 24.95 -1.8 28.8 60 -8.4 16.8
06:35 1016 30 845 24.95 -1.8 28.8 62 -8.2 17.3
06:40 1016 30 845 24.95 -1.6 29.1 61 -8.1 17.3
06:45 1016 30 845 24.95 -1.6 29.2 63 -7.7 18.1
06:50 1016 30 845 24.95 -2.1 28.3 66 -7.6 18.3
06:55 1016 30 845 24.95 -2.3 27.9 65 -7.9 17.7
07:00 1016 30 845 24.95 -2.1 28.3 63 -8.1 17.4
07:05 1016 30 845 24.95 -1.9 28.5 61 -8.5 16.8
07:10 1016 30 845 24.95 -1.2 29.9 59 -8.1 17.4
07:15 1016 30 845 24.95 -1.3 29.7 61 -7.9 17.7
07:20 1016 30 845 24.95 -1.1 30 59 -8.1 17.3
07:25 1016 30 845 24.95 -0.7 30.8 58 -7.9 17.8
07:30 1016 30 845 24.95 -0.8 30.5 58 -8 17.6
07:35 1016 30 845 24.95 -0.6 30.9 58 -8 17.7
07:40 1016 30 845 24.95 -0.8 30.6 59 -7.8 18
07:45 1016 30 845 24.95 -1.1 30 61 -7.8 18
07:50 1016 30 845 24.95 -0.9 30.3 60 -7.7 18.2
07:55 1016 30 845 24.95 -0.4 31.3 57 -7.9 17.8
08:00 1016 30 846 24.98 -0.2 31.6 57 -7.6 18.2
08:05 1016 30 846 24.98 -0.1 31.9 57 -7.6 18.3
08:10 1016 30 846 24.98 0.2 32.4 55 -7.8 17.9
08:15 1016 30 846 24.98 0 32 58 -7.4 18.7
08:20 1017 30.03 846 24.98 0 32 58 -7.2 19
08:25 1017 30.03 846 24.98 0.7 33.3 55 -7.4 18.7
08:30 1017 30.03 846 24.98 1.3 34.3 54 -7 19.4
08:35 1017 30.03 846 24.98 0.7 33.3 56 -7.1 19.2
08:40 1017 30.03 846 24.98 1.1 34.1 53 -7.3 18.8
08:45 1017 30.03 846 24.98 1.9 35.3 50 -7.6 18.4
08:50 1017 30.03 846 24.98 2.1 35.8 51 -6.9 19.6
08:55 1017 30.03 846 24.98 2.2 35.9 51 -7.1 19.3
09:00 1017 30.03 846 24.98 2.4 36.2 50 -7.1 19.2
09:05 1017 30.03 846 24.98 2.6 36.6 48 -7.4 18.7
09:10 1017 30.03 846 24.98 3.3 37.9 45 -7.5 18.4
09:15 1016 30 846 24.98 3.6 38.5 45 -7.3 18.9
09:20 1016 30 846 24.98 3.7 38.6 45 -7.3 18.9
09:25 1016 30 846 24.98 3.9 39 44 -7.2 19
09:30 1016 30 846 24.98 4.4 39.8 42 -7.6 18.3
09:35 1016 30 846 24.98 4.6 40.4 43 -7 19.4
09:40 1016 30 846 24.98 4.7 40.5 42 -7.1 19.3
09:45 1016 30 846 24.98 5.2 41.3 40 -7.3 18.9
09:50 1017 30.03 846 24.98 5.3 41.6 40 -7.3 18.9
09:55 1017 30.03 846 24.98 5.3 41.5 42 -6.6 20.2
10:00 1017 30.03 846 24.98 5.3 41.5 40 -7.1 19.1
10:05 1017 30.03 846 24.98 5.5 42 40 -7.2 19.1
10:10 1017 30.03 846 24.98 5.7 42.3 41 -6.6 20.1
10:15 1017 30.03 846 24.98 6.1 43.1 39 -6.7 20
10:20 1017 30.03 846 24.98 6.3 43.3 38 -7 19.3
10:25 1017 30.03 846 24.98 6.4 43.5 38 -6.9 19.6
10:30 1017 30.03 846 24.98 6.5 43.6 37 -7.1 19.3
10:35 1017 30.03 846 24.98 7.1 44.7 35 -7.2 19.1
10:40 1016 30 846 24.98 7.6 45.6 35 -6.8 19.8
10:45 1017 30.03 846 24.98 7.3 45.1 37 -6.4 20.5
10:50 1016 30 846 24.98 6.4 43.6 39 -6.6 20.2
10:55 1016 30 846 24.98 6 42.7 38 -7.2 19
11:00 1016 30 846 24.98 6.4 43.5 39 -6.7 20
11:05 1016 30 846 24.98 6.8 44.3 36 -7.2 19.1
11:10 1016 30 846 24.98 7.7 45.8 33 -7.5 18.4
11:15 1016 30 846 24.98 6.8 44.3 35 -7.6 18.4
11:20 1016 30 846 24.98 6.6 43.9 35 -7.9 17.8
11:25 1016 30 846 24.98 6.9 44.5 34 -7.8 17.9
11:30 1016 30 846 24.98 8 46.4 33 -7.3 18.8
11:35 1016 30 845 24.95 7.3 45.2 33 -7.8 17.9
11:40 1016 30 846 24.98 8.2 46.7 31 -7.8 17.9
11:45 1016 30 846 24.98 8.3 47 32 -7.2 19
11:50 1016 30 846 24.98 8 46.4 33 -7.4 18.7
11:55 1016 30 846 24.98 8 46.4 33 -7.2 19.1
12:00 1016 30 845 24.95 8.7 47.7 33 -6.5 20.3
12:05 1016 30 845 24.95 8.9 48 33 -6.4 20.6
12:10 1016 30 845 24.95 9.1 48.3 32 -6.6 20.1
12:15 1016 30 845 24.95 7.6 45.8 37 -6.1 21
12:20 1016 30 845 24.95 7.8 46 37 -6 21.2
12:25 1016 30 845 24.95 8.6 47.4 35 -6.2 20.9
12:30 1016 30 845 24.95 9.5 49.2 33 -5.8 21.6
12:35 1016 30 845 24.95 9.7 49.4 34 -5.4 22.2
12:40 1016 30 845 24.95 9.6 49.2 31 -6.6 20.1
12:45 1016 30 845 24.95 10 50.1 31 -6.2 20.8
12:50 1016 30 845 24.95 10.7 51.3 30 -6.3 20.7
12:55 1016 30 845 24.95 10.8 51.5 29 -6.5 20.3
13:00 1016 30 845 24.95 10.6 51.1 29 -6.6 20.2
13:05 1016 30 845 24.95 11.1 52 26 -7.5 18.5
13:10 1016 30 845 24.95 11.5 52.7 28 -6.5 20.3
13:15 1016 30 845 24.95 9.8 49.7 29 -7.3 18.9
13:20 1016 30 845 24.95 9.6 49.2 28 -8.1 17.5
13:25 1016 30 845 24.95 9.7 49.5 29 -7.5 18.5
13:30 1016 30 845 24.95 9.7 49.4 29 -7.5 18.5
13:35 1015 29.97 845 24.95 10 50 29 -7.4 18.8
13:40 1015 29.97 845 24.95 9.5 49.1 30 -7.3 18.8
13:45 1015 29.97 845 24.95 9.9 49.9 27 -8.4 16.9
13:50 1015 29.97 844 24.92 10.3 50.5 26 -8.3 17.1
13:55 1015 29.97 844 24.92 10.7 51.2 25 -8.7 16.4
14:00 1015 29.97 844 24.92 11.1 51.9 25 -8 17.6
14:05 1015 29.97 844 24.92 10.9 51.6 28 -6.7 19.9
14:10 1015 29.97 844 24.92 11.2 52.2 26 -7.6 18.4
14:15 1015 29.97 844 24.92 11.9 53.5 25 -7.3 18.9
14:20 1015 29.97 844 24.92 11.2 52.1 24 -8.6 16.6
14:25 1015 29.97 844 24.92 11 51.9 23 -9.5 14.9
14:30 1015 29.97 844 24.92 10.8 51.4 23 -9.8 14.4
14:35 1015 29.97 844 24.92 10.8 51.5 19 -11.8 10.8
14:40 1015 29.97 844 24.92 10.3 50.6 20 -11.5 11.2
14:45 1015 29.97 844 24.92 10.6 51 19 -12.2 10
14:50 1015 29.97 844 24.92 10.8 51.4 20 -11.3 11.6
14:55 1015 29.97 844 24.92 10.9 51.5 19 -12 10.4
15:00 1015 29.97 844 24.92 10.2 50.3 20 -11.8 10.8
15:05 1015 29.97 844 24.92 11.1 52 17 -12.8 9
15:10 1015 29.97 844 24.92 12.1 53.7 17 -12.3 9.8
15:15 1015 29.97 844 24.92 11.1 52 19 -12 10.5
15:20 1015 29.97 844 24.92 10.6 51.1 20 -11.6 11.1
15:25 1015 29.97 844 24.92 11.3 52.4 16 -13.8 7.2
15:30 1015 29.97 844 24.92 12.2 53.9 17 -12.4 9.8
15:35 1015 29.97 844 24.92 11.4 52.5 18 -12 10.3
15:40 1015 29.97 844 24.92 11.4 52.4 18 -12.2 10
15:45 1015 29.97 844 24.92 11.2 52.2 18 -12.2 10
15:50 1015 29.97 844 24.92 10.4 50.6 20 -11.7 11
15:55 1015 29.97 844 24.92 10.1 50.1 21 -11.2 11.9
16:00 1015 29.97 844 24.92 9.7 49.5 22 -11.2 11.9
16:05 1015 29.97 844 24.92 9.7 49.4 23 -10.7 12.7
16:10 1015 29.97 844 24.92 10.4 50.7 21 -11.2 11.9
16:15 1015 29.97 844 24.92 10.2 50.3 22 -10.4 13.3
16:20 1015 29.97 844 24.92 9.8 49.6 23 -10.5 13
16:25 1015 29.97 844 24.92 9.6 49.3 23 -10.3 13.5
16:30 1015 29.97 844 24.92 10 50.1 23 -10.3 13.5
16:35 1015 29.97 844 24.92 9.9 49.8 23 -10.5 13.1
16:40 1015 29.97 844 24.92 9.8 49.7 23 -10.4 13.3
16:45 1015 29.97 844 24.92 10.6 51 22 -10.4 13.3
16:50 1015 29.97 844 24.92 11.1 52 20 -10.8 12.6
16:55 1015 29.97 844 24.92 11.1 52 21 -10.5 13.2
17:00 1015 29.97 844 24.92 10.6 51.1 21 -10.7 12.8
17:05 1015 29.97 844 24.92 10.3 50.6 22 -10.7 12.7
17:10 1015 29.97 844 24.92 10.2 50.4 22 -10.7 12.7
17:15 1015 29.97 844 24.92 10.2 50.4 21 -10.9 12.4
17:20 1015 29.97 844 24.92 10.4 50.8 22 -10.4 13.3
17:25 1015 29.97 844 24.92 10.4 50.8 22 -10.4 13.3
17:30 1015 29.97 844 24.92 10.3 50.5 23 -10.1 13.8
17:35 1015 29.97 844 24.92 9.5 49.2 24 -10 14
17:40 1015 29.97 844 24.92 9.5 49 24 -10 14.1
17:45 1015 29.97 844 24.92 9.5 49.1 24 -10 14
17:50 1015 29.97 844 24.92 9.5 49 25 -9.9 14.3
17:55 1015 29.97 844 24.92 9.3 48.8 25 -9.7 14.5
18:00 1015 29.97 844 24.92 9.2 48.5 25 -9.7 14.6
18:05 1015 29.97 844 24.92 8.9 48.1 26 -9.7 14.5
18:10 1015 29.97 844 24.92 8.8 47.8 25 -10.1 13.8
18:15 1015 29.97 844 24.92 8.6 47.5 26 -9.8 14.4
18:20 1015 29.97 844 24.92 8.3 46.9 27 -9.8 14.4
18:25 1015 29.97 844 24.92 7.8 46 29 -9.3 15.3
18:30 1015 29.97 844 24.92 7.4 45.4 29 -9.3 15.3
18:35 1015 29.97 844 24.92 6.9 44.4 31 -9.1 15.6
18:40 1015 29.97 844 24.92 6.3 43.3 32 -9.3 15.2
18:45 1015 29.97 844 24.92 5.9 42.6 34 -8.8 16.1
18:50 1015 29.97 844 24.92 5.4 41.8 37 -8.2 17.3
18:55 1015 29.97 844 24.92 4.9 40.8 40 -7.7 18.2
19:00 1015 29.97 844 24.92 4.6 40.2 39 -8.2 17.3
19:05 1015 29.97 844 24.92 4.5 40.2 38 -8.8 16.2
19:10 1015 29.97 844 24.92 4.8 40.6 35 -9.5 14.8
19:15 1015 29.97 844 24.92 4.9 40.8 36 -9.1 15.6
19:20 1015 29.97 844 24.92 4.6 40.3 37 -8.9 16
19:25 1015 29.97 844 24.92 4.6 40.3 38 -8.6 16.4
19:30 1015 29.97 844 24.92 4.5 40 36 -9.5 14.9
19:35 1015 29.97 844 24.92 4.5 40.1 36 -9.5 15
19:40 1015 29.97 844 24.92 4.8 40.7 35 -9.5 14.8
19:45 1015 29.97 844 24.92 4.7 40.5 36 -9 15.9
19:50 1015 29.97 844 24.92 4.2 39.6 38 -8.9 16
19:55 1015 29.97 844 24.92 4 39.2 38 -9.1 15.6
20:00 1015 29.97 844 24.92 3.9 39 38 -9.2 15.5
20:05 1015 29.97 845 24.95 3.7 38.7 39 -8.9 16.1
20:10 1015 29.97 845 24.95 3.8 38.8 37 -9.5 14.9
20:15 1015 29.97 845 24.95 4.2 39.6 35 -10.1 13.8
20:20 1015 29.97 845 24.95 4.4 39.9 35 -9.7 14.5
20:25 1015 29.97 845 24.95 4 39.1 38 -9.1 15.6
20:30 1015 29.97 845 24.95 3.5 38.3 40 -8.9 16
20:35 1015 29.97 845 24.95 3.2 37.8 42 -8.6 16.5
20:40 1015 29.97 845 24.95 3 37.4 42 -8.6 16.5
20:45 1015 29.97 845 24.95 2.9 37.2 43 -8.6 16.6
20:50 1015 29.97 845 24.95 2.8 37.1 43 -8.5 16.7
20:55 1015 29.97 845 24.95 2.8 37 43 -8.6 16.5
21:00 1015 29.97 845 24.95 2.8 37.1 42 -8.9 16
21:05 1015 29.97 845 24.95 2.9 37.2 43 -8.4 16.8
21:10 1016 30 845 24.95 2.8 37 43 -8.7 16.3
21:15 1016 30 845 24.95 2.8 37 42 -8.8 16.2
21:20 1016 30 845 24.95 2.8 37.1 41 -9.2 15.4
21:25 1016 30 845 24.95 2.9 37.2 41 -9 15.7
21:30 1016 30 845 24.95 2.8 37.1 42 -9 15.8
21:35 1016 30 845 24.95 2.8 37.1 42 -8.7 16.3
21:40 1016 30 845 24.95 2.7 36.8 43 -8.8 16.2
21:45 1016 30 845 24.95 2.7 36.8 44 -8.5 16.6
21:50 1016 30 845 24.95 2.7 36.8 43 -8.9 16.1
21:55 1016 30 845 24.95 2.8 37.1 42 -8.8 16.1
22:00 1016 30 845 24.95 3.1 37.6 40 -9 15.7
22:05 1016 30 845 24.95 2.8 37.1 42 -9 15.8
22:10 1016 30 845 24.95 2.7 36.9 41 -9.3 15.3
22:15 1016 30 845 24.95 2.8 37 42 -8.8 16.1
22:20 1016 30 845 24.95 2.9 37.2 43 -8.5 16.7
22:25 1016 30 845 24.95 2.7 36.9 42 -8.9 16
22:30 1016 30 845 24.95 2.9 37.3 41 -9.2 15.4
22:35 1016 30 845 24.95 3.1 37.6 40 -9.3 15.3
22:40 1016 30 845 24.95 3.1 37.6 42 -8.6 16.4
22:45 1016 30 845 24.95 2.7 36.9 44 -8.4 16.9
22:50 1016 30 845 24.95 2.3 36.2 45 -8.4 16.8
22:55 1016 30 845 24.95 2.1 35.8 46 -8.3 17
23:00 1016 30 845 24.95 2.1 35.8 46 -8.5 16.7
23:05 1016 30 845 24.95 1.8 35.2 48 -8 17.6
23:10 1016 30 845 24.95 1.3 34.4 51 -7.8 18
23:15 1016 30 845 24.95 1.2 34.1 50 -8.2 17.3
23:20 1016 30 845 24.95 1.3 34.4 49 -8.3 17
23:25 1016 30 845 24.95 1.4 34.5 50 -8.1 17.5
23:30 1016 30 846 24.98 1.2 34.2 49 -8.4 16.8
23:35 1016 30 846 24.98 1.1 33.9 51 -8 17.5
23:40 1016 30 846 24.98 0.7 33.3 52 -8 17.5
23:45 1016 30 846 24.98 0.5 33 53 -7.9 17.7
23:50 1017 30.03 846 24.98 0.5 32.8 54 -7.8 17.9
23:55 1017 30.03 846 24.98 0.4 32.8 54 -7.8 18
24:00 1017 30.03 846 24.98 0.7 33.2 50 -8.6 16.5